Terminal Aerodrome Forecast
Issued by NWS Tuscon, AZ

Home | Current Version | Previous Version | Text Only | Print | Product List | Glossary On
Versions: 1 2 3 4 5 6 7 8 9 10 11 12 13 14 15
886
FTUS45 KTWC 262327
TAFTUS
TAF
KTUS 262327Z 2700/2724 30010KT P6SM SKC
     FM270500 20005KT P6SM SCT250
     FM270800 15006KT P6SM BKN250
     FM271900 27012G20KT P6SM FEW120 SCT250=

USA.gov is the U.S. government's official web portal to all federal, state and local government web resources and services.